M I D A S
Marine Information and Data Acquisition System
Tripno 1024 of the Zeeleeuw from 2006-01-17 09:22:20 to 2006-01-17 12:20:56
Back to CruiseResearch ActivitiesStationsMapUnderway DataData graphs

EquipmentUnitsComments
TimeDGPSUTC
LatitudeDGPSDM.mWGS84
LongitudeDGPSDM.mWGS84
SpeedMeteo Stationm/sRelative wind speed
DirectionMeteo StationdegRelative wind direction
TemperatureMeteo Stationdeg CelciusAir temperature
PressureMeteo StationPaAtmospheric pressure
HumidityMeteo Station%Relative humidity
Missing or incorrect values are displayed as -999
Metereological data collected by the RV Zeeleeuw from 2006-01-17 09:22:37 to 2006-01-17 12:33:39
Time Latitude Longitude Speed Direction Temperature Pressure Humidity
2006-01-17 09:23 51°13.619 2°56.032 -999 144 6.4 100200 99
2006-01-17 09:24 51°13.644 2°55.925 -999 166 6.4 100200 99
2006-01-17 09:25 51°13.672 2°55.821 -999 153 6.4 100200 99
2006-01-17 09:26 51°13.686 2°55.74 -999 168 6.3 100200 99
2006-01-17 09:27 51°13.706 2°55.752 -999 259 6.4 100190 99
2006-01-17 09:28 51°13.763 2°55.705 -999 306 6.4 100190 99
2006-01-17 09:29 51°13.849 2°55.621 -999 332 6.5 100190 99
2006-01-17 09:30 51°13.948 2°55.546 -999 332 6.5 100170 99
2006-01-17 09:31 51°14.05 2°55.475 -999 5 6.5 100170 99
2006-01-17 09:32 51°14.161 2°55.386 -999 328 6.5 100160 99
2006-01-17 09:33 51°14.281 2°55.227 -999 318 6.6 100150 99
2006-01-17 09:34 51°14.397 2°55.023 -999 317 6.6 100140 99
2006-01-17 09:35 51°14.557 2°54.87 -999 308 6.5 100130 99
2006-01-17 09:36 51°14.748 2°54.808 -999 306 6.5 100130 99
2006-01-17 09:37 51°14.941 2°54.732 -999 309 6.3 100120 99
2006-01-17 09:38 51°15.139 2°54.657 -999 297 6.3 100120 99
2006-01-17 09:39 51°15.331 2°54.595 -999 310 6.2 100110 99
2006-01-17 09:40 51°15.532 2°54.517 -999 303 6.1 100110 99
2006-01-17 09:41 51°15.731 2°54.445 -999 306 6.1 100120 99
2006-01-17 09:42 51°15.922 2°54.376 -999 307 6 100120 99
2006-01-17 09:43 51°16.117 2°54.312 -999 292 5.9 100120 99
2006-01-17 09:44 51°16.204 2°54.35 -999 193 5.9 100190 99
2006-01-17 09:45 51°16.218 2°54.359 -999 220 6 100160 99
2006-01-17 09:46 51°16.225 2°54.357 -999 220 6 100180 99
2006-01-17 09:47 51°16.229 2°54.35 -999 226 6 100170 99
2006-01-17 09:48 51°16.232 2°54.338 -999 236 6 100180 99
2006-01-17 09:49 51°16.233 2°54.323 -999 252 6 100180 99
2006-01-17 09:50 51°16.23 2°54.305 -999 257 5.9 100160 99
2006-01-17 09:51 51°16.226 2°54.287 -999 262 5.9 100160 100
2006-01-17 09:52 51°16.22 2°54.27 -999 264 5.9 100150 100
2006-01-17 09:53 51°16.212 2°54.256 -999 266 5.9 100150 100
2006-01-17 09:54 51°16.206 2°54.242 -999 268 5.9 100150 100
2006-01-17 09:55 51°16.197 2°54.229 -999 266 5.9 100150 100
2006-01-17 09:56 51°16.188 2°54.219 -999 268 5.9 100150 100
2006-01-17 09:57 51°16.181 2°54.209 -999 261 5.9 100150 100
2006-01-17 09:58 51°16.171 2°54.199 -999 251 5.9 100150 100
2006-01-17 09:59 51°16.161 2°54.189 -999 256 5.9 100150 100
2006-01-17 10:00 51°16.152 2°54.179 -999 251 5.9 100150 100
2006-01-17 10:01 51°16.142 2°54.168 -999 247 5.9 100150 100
2006-01-17 10:02 51°16.134 2°54.158 -999 251 5.9 100140 100
2006-01-17 10:03 51°16.126 2°54.147 -999 248 6 100140 100
2006-01-17 10:04 51°16.119 2°54.136 -999 254 6 100130 100
2006-01-17 10:05 51°16.112 2°54.125 -999 254 6 100130 100
2006-01-17 10:06 51°16.105 2°54.114 -999 256 5.9 100140 100
2006-01-17 10:07 51°16.098 2°54.104 -999 254 5.9 100140 100
2006-01-17 10:08 51°16.119 2°54.086 -999 222 5.8 100140 100
2006-01-17 10:09 51°16.168 2°54.148 -999 180 5.9 100150 100
2006-01-17 10:10 51°16.235 2°54.226 -999 204 6.3 100160 100
2006-01-17 10:11 51°16.281 2°54.276 -999 184 6.1 100160 100
2006-01-17 10:12 51°16.3 2°54.314 -999 168 6.2 100160 100
2006-01-17 10:13 51°16.304 2°54.342 -999 154 6.1 100160 100
2006-01-17 10:14 51°16.301 2°54.364 -999 145 6 100160 100
2006-01-17 10:15 51°16.294 2°54.379 -999 140 6 100160 100
2006-01-17 10:16 51°16.286 2°54.39 -999 136 6 100150 100
2006-01-17 10:17 51°16.275 2°54.397 -999 130 5.9 100150 100
2006-01-17 10:18 51°16.263 2°54.401 -999 119 5.9 100150 100
2006-01-17 10:19 51°16.251 2°54.401 -999 110 5.9 100150 100
2006-01-17 10:20 51°16.24 2°54.399 -999 102 5.9 100130 100
2006-01-17 10:21 51°16.229 2°54.396 -999 101 5.9 100130 100
2006-01-17 10:22 51°16.22 2°54.392 -999 97 5.9 100140 100
2006-01-17 10:23 51°16.21 2°54.387 -999 91 5.9 100140 100
2006-01-17 10:24 51°16.201 2°54.382 -999 90 5.9 100120 100
2006-01-17 10:25 51°16.193 2°54.377 -999 87 5.9 100120 100
2006-01-17 10:26 51°16.184 2°54.372 -999 88 6 100120 100
2006-01-17 10:27 51°16.176 2°54.368 -999 87 5.9 100120 100
2006-01-17 10:28 51°16.167 2°54.364 -999 86 5.9 100130 100
2006-01-17 10:29 51°16.159 2°54.361 -999 92 5.9 100140 100
2006-01-17 10:30 51°16.151 2°54.358 -999 89 5.9 100130 100
2006-01-17 10:31 51°16.142 2°54.354 -999 88 5.9 100120 100
2006-01-17 10:32 51°16.133 2°54.351 -999 86 6 100130 100
2006-01-17 10:33 51°16.123 2°54.348 -999 81 5.9 100130 100
2006-01-17 10:34 51°16.114 2°54.345 -999 88 5.9 100130 100
2006-01-17 10:35 51°16.105 2°54.341 -999 90 5.9 100150 100
2006-01-17 10:36 51°16.077 2°54.341 -999 47 5.9 100120 100
2006-01-17 10:37 51°16.03 2°54.267 -999 337 5.9 100130 100
2006-01-17 10:38 51°16.054 2°54.174 -999 269 6 100120 100
2006-01-17 10:39 51°16.107 2°54.206 -999 215 6 100130 100
2006-01-17 10:40 51°16.178 2°54.261 -999 245 6 100130 100
2006-01-17 10:41 51°16.265 2°54.308 -999 245 6 100130 100
2006-01-17 10:42 51°16.316 2°54.347 -999 188 6.1 100130 100
2006-01-17 10:43 51°16.316 2°54.363 -999 153 6.2 100150 100
2006-01-17 10:44 51°16.31 2°54.379 -999 144 6.2 100150 100
2006-01-17 10:45 51°16.302 2°54.392 -999 131 6.2 100140 100
2006-01-17 10:46 51°16.293 2°54.401 -999 131 6.1 100140 100
2006-01-17 10:47 51°16.283 2°54.407 -999 123 6.1 100140 100
2006-01-17 10:48 51°16.274 2°54.409 -999 115 6.1 100150 100
2006-01-17 10:49 51°16.265 2°54.409 -999 105 6.1 100150 100
2006-01-17 10:50 51°16.256 2°54.409 -999 100 6.1 100150 100
2006-01-17 10:51 51°16.248 2°54.409 -999 103 6.1 100140 100
2006-01-17 10:52 51°16.24 2°54.411 -999 97 6.1 100140 100
2006-01-17 10:53 51°16.233 2°54.412 -999 99 6.1 100140 100
2006-01-17 10:54 51°16.224 2°54.414 -999 99 6.1 100140 100
2006-01-17 10:55 51°16.217 2°54.416 -999 99 6.1 100150 100
2006-01-17 10:56 51°16.209 2°54.418 -999 106 6.1 100150 100
2006-01-17 10:57 51°16.201 2°54.422 -999 100 6.1 100150 100
2006-01-17 10:58 51°16.158 2°54.424 -999 38 6.1 100140 100
2006-01-17 10:59 51°16.108 2°54.326 -999 340 6.1 100110 100
2006-01-17 11:00 51°16.188 2°54.196 -999 310 6.2 100080 100
2006-01-17 11:01 51°16.297 2°54.026 -999 319 6.2 100090 100
2006-01-17 11:02 51°16.415 2°53.849 -999 228 6.2 100110 100
2006-01-17 11:03 51°16.534 2°53.675 -999 318 6.1 100110 100
2006-01-17 11:04 51°16.656 2°53.508 -999 43 6.1 100100 100
2006-01-17 11:05 51°16.774 2°53.336 -999 315 6.1 100080 100
2006-01-17 11:06 51°16.89 2°53.163 -999 226 6.1 100070 100
2006-01-17 11:07 51°17.006 2°52.993 -999 227 6.1 100070 100
2006-01-17 11:08 51°17.119 2°52.821 -999 38 6.1 100080 100
2006-01-17 11:09 51°17.234 2°52.644 -999 316 6.1 100100 100
2006-01-17 11:10 51°17.348 2°52.47 -999 320 6.1 100110 100
2006-01-17 11:11 51°17.467 2°52.303 -999 41 6.1 100110 100
2006-01-17 11:12 51°17.585 2°52.136 -999 317 6.1 100110 100
2006-01-17 11:13 51°17.704 2°51.968 -999 315 6.1 100100 100
2006-01-17 11:14 51°17.827 2°51.811 -999 316 6.1 100090 100
2006-01-17 11:15 51°17.951 2°51.655 -999 319 6.1 100090 100
2006-01-17 11:16 51°18.077 2°51.499 -999 320 6.1 100090 100
2006-01-17 11:17 51°18.201 2°51.347 -999 318 6.2 100090 100
2006-01-17 11:18 51°18.306 2°51.216 -999 313 6.2 100120 100
2006-01-17 11:19 51°18.363 2°51.131 -999 304 6.3 100120 100
2006-01-17 11:20 51°18.409 2°51.075 -999 291 6.3 100130 100
2006-01-17 11:21 51°18.444 2°51.038 -999 284 6.3 100130 100
2006-01-17 11:22 51°18.47 2°51.01 -999 277 6.3 100130 100
2006-01-17 11:23 51°18.49 2°50.988 -999 266 6.4 100140 100
2006-01-17 11:24 51°18.504 2°50.971 -999 272 6.4 100130 100
2006-01-17 11:25 51°18.51 2°50.953 -999 276 6.3 100120 100
2006-01-17 11:26 51°18.512 2°50.936 -999 282 6.3 100120 100
2006-01-17 11:27 51°18.51 2°50.922 -999 286 6.3 100140 100
2006-01-17 11:28 51°18.507 2°50.911 -999 285 6.3 100120 100
2006-01-17 11:29 51°18.502 2°50.902 -999 290 6.4 100110 100
2006-01-17 11:30 51°18.496 2°50.893 -999 286 6.4 100120 100
2006-01-17 11:31 51°18.489 2°50.886 -999 282 6.4 100110 100
2006-01-17 11:32 51°18.481 2°50.88 -999 271 6.3 100120 100
2006-01-17 11:33 51°18.473 2°50.876 -999 266 6.3 100110 100
2006-01-17 11:34 51°18.466 2°50.872 -999 267 6.3 100110 100
2006-01-17 11:35 51°18.459 2°50.869 -999 263 6.3 100100 100
2006-01-17 11:36 51°18.451 2°50.865 -999 260 6.3 100100 100
2006-01-17 11:37 51°18.445 2°50.862 -999 263 6.3 100100 100
2006-01-17 11:38 51°18.438 2°50.859 -999 264 6.3 100110 100
2006-01-17 11:39 51°18.431 2°50.857 -999 261 6.2 100120 100
2006-01-17 11:40 51°18.426 2°50.854 -999 259 6.2 100130 100
2006-01-17 11:41 51°18.421 2°50.852 -999 260 6.2 100130 100
2006-01-17 11:42 51°18.417 2°50.85 -999 261 6.2 100130 100
2006-01-17 11:43 51°18.414 2°50.848 -999 261 6.2 100130 100
2006-01-17 11:44 51°18.411 2°50.846 -999 262 6.2 100160 100
2006-01-17 11:45 51°18.408 2°50.845 -999 270 6.2 100140 100
2006-01-17 11:46 51°18.405 2°50.844 -999 269 6.2 100140 100
2006-01-17 11:47 51°18.404 2°50.844 -999 261 6.2 100130 100
2006-01-17 11:48 51°18.403 2°50.845 -999 263 6.2 100120 100
2006-01-17 11:49 51°18.403 2°50.846 -999 266 6.2 100120 100
2006-01-17 11:50 51°18.402 2°50.848 -999 267 6.1 100120 100
2006-01-17 11:51 51°18.401 2°50.85 -999 261 6.1 100120 100
2006-01-17 11:52 51°18.401 2°50.851 -999 275 6.2 100120 100
2006-01-17 11:53 51°18.402 2°50.853 -999 272 6.1 100120 100
2006-01-17 11:54 51°18.402 2°50.856 -999 268 6.1 100130 100
2006-01-17 11:55 51°18.403 2°50.861 -999 274 6.1 100150 100
2006-01-17 11:56 51°18.412 2°50.863 -999 274 6.1 100130 100
2006-01-17 11:57 51°18.473 2°50.962 -999 70 6.1 100130 100
2006-01-17 11:58 51°18.402 2°51.162 -999 64 6.1 100100 100
2006-01-17 11:59 51°18.223 2°51.331 -999 56 6.2 100070 100
2006-01-17 12:00 51°18.039 2°51.512 -999 60 6.1 100070 100
2006-01-17 12:01 51°17.861 2°51.691 -999 59 6.1 100070 100
2006-01-17 12:02 51°17.677 2°51.875 -999 59 6.1 100070 100
2006-01-17 12:03 51°17.487 2°52.041 -999 63 6.1 100060 100
2006-01-17 12:04 51°17.294 2°52.199 -999 61 6.1 100050 100
2006-01-17 12:05 51°17.101 2°52.361 -999 61 6.1 100050 100
2006-01-17 12:06 51°16.91 2°52.523 -999 54 6.1 100060 100
2006-01-17 12:07 51°16.716 2°52.691 -999 52 6.1 100060 100
2006-01-17 12:08 51°16.522 2°52.863 -999 53 6.1 100070 100
2006-01-17 12:09 51°16.326 2°53.035 -999 45 6.1 100070 100
2006-01-17 12:10 51°16.133 2°53.194 -999 49 6 100070 100
2006-01-17 12:11 51°15.942 2°53.357 -999 52 6 100090 100
2006-01-17 12:12 51°15.751 2°53.513 -999 50 5.9 100130 100
2006-01-17 12:13 51°15.562 2°53.673 -999 49 5.9 100070 100
2006-01-17 12:14 51°15.372 2°53.829 -999 47 5.9 100070 100
2006-01-17 12:15 51°15.185 2°53.981 -999 50 5.8 100070 100
2006-01-17 12:16 51°14.994 2°54.144 -999 46 5.8 100060 100
2006-01-17 12:17 51°14.809 2°54.308 -999 53 5.8 100060 100
2006-01-17 12:18 51°14.658 2°54.501 -999 65 5.8 100090 100
2006-01-17 12:19 51°14.532 2°54.729 -999 62 5.8 100090 100
2006-01-17 12:20 51°14.41 2°54.975 -999 65 5.8 100090 100
2006-01-17 12:21 51°14.286 2°55.207 -999 66 5.8 100130 100
2006-01-17 12:22 51°14.181 2°55.375 -999 89 5.8 100130 100
2006-01-17 12:23 51°14.075 2°55.464 -999 61 6.3 100130 100
2006-01-17 12:24 51°13.976 2°55.534 -999 42 6.6 100130 100
2006-01-17 12:25 51°13.884 2°55.597 -999 95 6.8 100130 100
2006-01-17 12:26 51°13.806 2°55.656 -999 24 7 100140 100
2006-01-17 12:27 51°13.741 2°55.736 -999 104 7.2 100130 100
2006-01-17 12:28 51°13.69 2°55.837 -999 136 7.3 100140 100
2006-01-17 12:29 51°13.645 2°55.943 -999 146 7.4 100140 100
2006-01-17 12:30 51°13.615 2°56.029 -999 168 7.4 100140 100
2006-01-17 12:31 51°13.602 2°56.082 -999 164 7.5 100130 100
2006-01-17 12:32 51°13.599 2°56.091 -999 171 7.6 100130 100